sensor_id;sensor_type;location;lat;lon;timestamp;P1;durP1;ratioP1;P2;durP2;ratioP2
66628;SDS011;53532;53.084;6.352;2023-04-03T00:00:19;6.03;;;1.70;;
66628;SDS011;53532;53.084;6.352;2023-04-03T00:02:45;3.67;;;1.40;;
66628;SDS011;53532;53.084;6.352;2023-04-03T00:05:12;5.90;;;2.03;;
66628;SDS011;53532;53.084;6.352;2023-04-03T00:07:38;6.27;;;1.50;;
66628;SDS011;53532;53.084;6.352;2023-04-03T00:10:04;6.43;;;1.67;;
66628;SDS011;53532;53.084;6.352;2023-04-03T00:12:31;4.57;;;1.50;;
66628;SDS011;53532;53.084;6.352;2023-04-03T00:14:57;4.03;;;1.60;;
66628;SDS011;53532;53.084;6.352;2023-04-03T00:17:24;3.57;;;1.40;;
66628;SDS011;53532;53.084;6.352;2023-04-03T00:19:51;5.13;;;1.77;;
66628;SDS011;53532;53.084;6.352;2023-04-03T00:22:17;3.80;;;1.40;;
66628;SDS011;53532;53.084;6.352;2023-04-03T00:24:43;5.40;;;1.47;;
66628;SDS011;53532;53.084;6.352;2023-04-03T00:27:10;5.93;;;1.50;;
66628;SDS011;53532;53.084;6.352;2023-04-03T00:29:36;6.83;;;1.77;;
66628;SDS011;53532;53.084;6.352;2023-04-03T00:32:03;4.10;;;1.57;;
66628;SDS011;53532;53.084;6.352;2023-04-03T00:34:31;3.27;;;1.40;;
66628;SDS011;53532;53.084;6.352;2023-04-03T00:36:57;3.33;;;1.57;;
66628;SDS011;53532;53.084;6.352;2023-04-03T00:39:25;3.50;;;1.40;;
66628;SDS011;53532;53.084;6.352;2023-04-03T00:41:51;5.57;;;1.63;;
66628;SDS011;53532;53.084;6.352;2023-04-03T00:44:19;4.77;;;1.70;;
66628;SDS011;53532;53.084;6.352;2023-04-03T00:46:45;3.83;;;1.50;;
66628;SDS011;53532;53.084;6.352;2023-04-03T00:49:11;5.20;;;1.70;;
66628;SDS011;53532;53.084;6.352;2023-04-03T00:51:39;5.27;;;1.87;;
66628;SDS011;53532;53.084;6.352;2023-04-03T00:54:05;9.00;;;2.03;;
66628;SDS011;53532;53.084;6.352;2023-04-03T00:56:32;5.93;;;1.60;;
66628;SDS011;53532;53.084;6.352;2023-04-03T00:58:59;5.87;;;1.90;;
66628;SDS011;53532;53.084;6.352;2023-04-03T01:01:28;5.50;;;1.67;;
66628;SDS011;53532;53.084;6.352;2023-04-03T01:03:55;4.83;;;1.73;;
66628;SDS011;53532;53.084;6.352;2023-04-03T01:06:23;5.43;;;1.90;;
66628;SDS011;53532;53.084;6.352;2023-04-03T01:08:52;5.17;;;1.67;;
66628;SDS011;53532;53.084;6.352;2023-04-03T01:11:19;6.13;;;1.97;;
66628;SDS011;53532;53.084;6.352;2023-04-03T01:13:46;5.13;;;1.87;;
66628;SDS011;53532;53.084;6.352;2023-04-03T01:16:12;5.13;;;1.70;;
66628;SDS011;53532;53.084;6.352;2023-04-03T01:18:38;4.80;;;1.90;;
66628;SDS011;53532;53.084;6.352;2023-04-03T01:23:54;6.60;;;1.90;;
66628;SDS011;53532;53.084;6.352;2023-04-03T01:28:47;6.23;;;1.70;;
66628;SDS011;53532;53.084;6.352;2023-04-03T01:31:15;6.57;;;1.80;;
66628;SDS011;53532;53.084;6.352;2023-04-03T01:33:46;5.00;;;2.00;;
66628;SDS011;53532;53.084;6.352;2023-04-03T01:36:13;5.43;;;1.87;;
66628;SDS011;53532;53.084;6.352;2023-04-03T01:38:40;7.27;;;1.80;;
66628;SDS011;53532;53.084;6.352;2023-04-03T01:41:06;4.93;;;1.90;;
66628;SDS011;53532;53.084;6.352;2023-04-03T01:43:32;5.30;;;2.00;;
66628;SDS011;53532;53.084;6.352;2023-04-03T01:45:58;6.07;;;2.00;;
66628;SDS011;53532;53.084;6.352;2023-04-03T01:48:25;5.37;;;1.90;;
66628;SDS011;53532;53.084;6.352;2023-04-03T01:50:53;5.30;;;1.77;;
66628;SDS011;53532;53.084;6.352;2023-04-03T01:53:19;5.23;;;1.93;;
66628;SDS011;53532;53.084;6.352;2023-04-03T01:55:45;8.83;;;2.80;;
66628;SDS011;53532;53.084;6.352;2023-04-03T01:58:11;5.77;;;1.80;;
66628;SDS011;53532;53.084;6.352;2023-04-03T02:00:37;7.20;;;2.23;;
66628;SDS011;53532;53.084;6.352;2023-04-03T02:03:03;5.53;;;1.90;;
66628;SDS011;53532;53.084;6.352;2023-04-03T02:05:30;5.83;;;2.03;;
66628;SDS011;53532;53.084;6.352;2023-04-03T02:07:58;9.63;;;2.50;;
66628;SDS011;53532;53.084;6.352;2023-04-03T02:10:24;5.63;;;2.10;;
66628;SDS011;53532;53.084;6.352;2023-04-03T02:12:50;5.73;;;1.97;;
66628;SDS011;53532;53.084;6.352;2023-04-03T02:15:17;6.60;;;2.43;;
66628;SDS011;53532;53.084;6.352;2023-04-03T02:17:43;6.50;;;2.17;;
66628;SDS011;53532;53.084;6.352;2023-04-03T02:20:09;7.30;;;2.27;;
66628;SDS011;53532;53.084;6.352;2023-04-03T02:22:35;6.87;;;2.37;;
66628;SDS011;53532;53.084;6.352;2023-04-03T02:25:03;7.43;;;2.60;;
66628;SDS011;53532;53.084;6.352;2023-04-03T02:27:29;5.00;;;2.00;;
66628;SDS011;53532;53.084;6.352;2023-04-03T02:29:56;6.80;;;2.33;;
66628;SDS011;53532;53.084;6.352;2023-04-03T02:32:23;5.13;;;2.27;;
66628;SDS011;53532;53.084;6.352;2023-04-03T02:34:49;5.80;;;2.40;;
66628;SDS011;53532;53.084;6.352;2023-04-03T02:37:15;5.13;;;2.20;;
66628;SDS011;53532;53.084;6.352;2023-04-03T02:39:41;9.27;;;2.23;;
66628;SDS011;53532;53.084;6.352;2023-04-03T02:42:09;6.33;;;2.40;;
66628;SDS011;53532;53.084;6.352;2023-04-03T02:44:35;8.60;;;2.47;;
66628;SDS011;53532;53.084;6.352;2023-04-03T02:47:01;6.27;;;2.23;;
66628;SDS011;53532;53.084;6.352;2023-04-03T02:49:27;7.43;;;2.33;;
66628;SDS011;53532;53.084;6.352;2023-04-03T02:51:54;9.27;;;2.83;;
66628;SDS011;53532;53.084;6.352;2023-04-03T02:54:20;7.20;;;2.37;;
66628;SDS011;53532;53.084;6.352;2023-04-03T02:56:48;5.87;;;2.57;;
66628;SDS011;53532;53.084;6.352;2023-04-03T02:59:16;6.20;;;2.63;;
66628;SDS011;53532;53.084;6.352;2023-04-03T03:01:43;6.77;;;2.53;;
66628;SDS011;53532;53.084;6.352;2023-04-03T03:04:09;6.80;;;2.43;;
66628;SDS011;53532;53.084;6.352;2023-04-03T03:06:35;7.20;;;2.50;;
66628;SDS011;53532;53.084;6.352;2023-04-03T03:09:02;9.30;;;2.67;;
66628;SDS011;53532;53.084;6.352;2023-04-03T03:11:28;9.10;;;3.10;;
66628;SDS011;53532;53.084;6.352;2023-04-03T03:13:55;6.87;;;3.00;;
66628;SDS011;53532;53.084;6.352;2023-04-03T03:16:23;8.30;;;3.43;;
66628;SDS011;53532;53.084;6.352;2023-04-03T03:18:49;8.73;;;3.10;;
66628;SDS011;53532;53.084;6.352;2023-04-03T03:21:15;7.43;;;2.97;;
66628;SDS011;53532;53.084;6.352;2023-04-03T03:23:41;9.67;;;3.10;;
66628;SDS011;53532;53.084;6.352;2023-04-03T03:26:09;8.23;;;2.87;;
66628;SDS011;53532;53.084;6.352;2023-04-03T03:28:35;8.73;;;3.03;;
66628;SDS011;53532;53.084;6.352;2023-04-03T03:31:02;7.77;;;3.03;;
66628;SDS011;53532;53.084;6.352;2023-04-03T03:33:30;9.43;;;3.30;;
66628;SDS011;53532;53.084;6.352;2023-04-03T03:35:56;9.77;;;3.37;;
66628;SDS011;53532;53.084;6.352;2023-04-03T03:38:23;7.17;;;3.30;;
66628;SDS011;53532;53.084;6.352;2023-04-03T03:40:50;8.73;;;3.43;;
66628;SDS011;53532;53.084;6.352;2023-04-03T03:43:16;7.30;;;2.80;;
66628;SDS011;53532;53.084;6.352;2023-04-03T03:45:42;7.53;;;2.93;;
66628;SDS011;53532;53.084;6.352;2023-04-03T03:48:09;7.60;;;3.00;;
66628;SDS011;53532;53.084;6.352;2023-04-03T03:50:37;8.43;;;3.37;;
66628;SDS011;53532;53.084;6.352;2023-04-03T03:53:03;9.07;;;3.50;;
66628;SDS011;53532;53.084;6.352;2023-04-03T03:55:30;7.43;;;3.00;;
66628;SDS011;53532;53.084;6.352;2023-04-03T03:57:56;8.30;;;3.30;;
66628;SDS011;53532;53.084;6.352;2023-04-03T04:00:22;9.20;;;3.53;;
66628;SDS011;53532;53.084;6.352;2023-04-03T04:02:48;8.23;;;3.40;;
66628;SDS011;53532;53.084;6.352;2023-04-03T04:05:14;9.37;;;3.50;;
66628;SDS011;53532;53.084;6.352;2023-04-03T04:07:42;7.43;;;3.13;;
66628;SDS011;53532;53.084;6.352;2023-04-03T04:10:08;10.17;;;3.83;;
66628;SDS011;53532;53.084;6.352;2023-04-03T04:12:35;8.40;;;3.60;;
66628;SDS011;53532;53.084;6.352;2023-04-03T04:15:01;9.37;;;3.87;;
66628;SDS011;53532;53.084;6.352;2023-04-03T04:17:27;8.47;;;3.43;;
66628;SDS011;53532;53.084;6.352;2023-04-03T04:19:53;9.53;;;3.40;;
66628;SDS011;53532;53.084;6.352;2023-04-03T04:22:19;9.53;;;3.97;;
66628;SDS011;53532;53.084;6.352;2023-04-03T04:24:47;8.90;;;3.97;;
66628;SDS011;53532;53.084;6.352;2023-04-03T04:27:13;10.93;;;4.03;;
66628;SDS011;53532;53.084;6.352;2023-04-03T04:29:41;9.97;;;3.90;;
66628;SDS011;53532;53.084;6.352;2023-04-03T04:32:07;10.53;;;3.97;;
66628;SDS011;53532;53.084;6.352;2023-04-03T04:34:33;10.03;;;4.07;;
66628;SDS011;53532;53.084;6.352;2023-04-03T04:37:00;8.47;;;3.70;;
66628;SDS011;53532;53.084;6.352;2023-04-03T04:39:26;11.57;;;3.83;;
66628;SDS011;53532;53.084;6.352;2023-04-03T04:41:53;10.37;;;4.20;;
66628;SDS011;53532;53.084;6.352;2023-04-03T04:44:20;10.00;;;4.00;;
66628;SDS011;53532;53.084;6.352;2023-04-03T04:46:46;9.07;;;4.20;;
66628;SDS011;53532;53.084;6.352;2023-04-03T04:49:12;11.73;;;3.97;;
66628;SDS011;53532;53.084;6.352;2023-04-03T04:51:38;10.10;;;4.10;;
66628;SDS011;53532;53.084;6.352;2023-04-03T04:54:04;10.07;;;3.80;;
66628;SDS011;53532;53.084;6.352;2023-04-03T04:56:31;10.87;;;4.20;;
66628;SDS011;53532;53.084;6.352;2023-04-03T04:58:58;9.40;;;3.90;;
66628;SDS011;53532;53.084;6.352;2023-04-03T05:01:24;13.90;;;4.87;;
66628;SDS011;53532;53.084;6.352;2023-04-03T05:03:51;10.90;;;4.50;;
66628;SDS011;53532;53.084;6.352;2023-04-03T05:06:17;11.23;;;4.30;;
66628;SDS011;53532;53.084;6.352;2023-04-03T05:08:43;11.10;;;4.70;;
66628;SDS011;53532;53.084;6.352;2023-04-03T05:11:09;12.07;;;4.33;;
66628;SDS011;53532;53.084;6.352;2023-04-03T05:13:35;9.80;;;3.97;;
66628;SDS011;53532;53.084;6.352;2023-04-03T05:16:03;9.93;;;4.43;;
66628;SDS011;53532;53.084;6.352;2023-04-03T05:18:30;9.97;;;4.53;;
66628;SDS011;53532;53.084;6.352;2023-04-03T05:20:56;12.17;;;4.97;;
66628;SDS011;53532;53.084;6.352;2023-04-03T05:23:23;10.23;;;4.60;;
66628;SDS011;53532;53.084;6.352;2023-04-03T05:25:50;10.43;;;4.70;;
66628;SDS011;53532;53.084;6.352;2023-04-03T05:28:16;12.60;;;5.13;;
66628;SDS011;53532;53.084;6.352;2023-04-03T05:30:42;10.07;;;4.27;;
66628;SDS011;53532;53.084;6.352;2023-04-03T05:33:09;11.00;;;5.27;;
66628;SDS011;53532;53.084;6.352;2023-04-03T05:35:36;12.87;;;4.80;;
66628;SDS011;53532;53.084;6.352;2023-04-03T05:38:06;11.03;;;4.70;;
66628;SDS011;53532;53.084;6.352;2023-04-03T05:40:32;13.30;;;4.57;;
66628;SDS011;53532;53.084;6.352;2023-04-03T05:42:58;11.27;;;4.80;;
66628;SDS011;53532;53.084;6.352;2023-04-03T05:45:24;9.27;;;4.23;;
66628;SDS011;53532;53.084;6.352;2023-04-03T05:47:50;11.43;;;4.60;;
66628;SDS011;53532;53.084;6.352;2023-04-03T05:50:18;9.30;;;4.03;;
66628;SDS011;53532;53.084;6.352;2023-04-03T05:52:45;10.53;;;4.60;;
66628;SDS011;53532;53.084;6.352;2023-04-03T05:55:12;10.77;;;4.40;;
66628;SDS011;53532;53.084;6.352;2023-04-03T05:57:39;10.47;;;4.13;;
66628;SDS011;53532;53.084;6.352;2023-04-03T06:00:05;12.03;;;4.57;;
66628;SDS011;53532;53.084;6.352;2023-04-03T06:02:32;11.60;;;4.37;;
66628;SDS011;53532;53.084;6.352;2023-04-03T06:04:58;10.60;;;4.80;;
66628;SDS011;53532;53.084;6.352;2023-04-03T06:07:26;11.13;;;4.70;;
66628;SDS011;53532;53.084;6.352;2023-04-03T06:09:53;9.73;;;4.07;;
66628;SDS011;53532;53.084;6.352;2023-04-03T06:12:21;12.63;;;5.10;;
66628;SDS011;53532;53.084;6.352;2023-04-03T06:14:47;11.50;;;4.70;;
66628;SDS011;53532;53.084;6.352;2023-04-03T06:17:13;9.67;;;4.20;;
66628;SDS011;53532;53.084;6.352;2023-04-03T06:19:40;11.50;;;4.80;;
66628;SDS011;53532;53.084;6.352;2023-04-03T06:22:07;11.17;;;5.10;;
66628;SDS011;53532;53.084;6.352;2023-04-03T06:24:34;10.47;;;4.67;;
66628;SDS011;53532;53.084;6.352;2023-04-03T06:27:01;10.80;;;5.10;;
66628;SDS011;53532;53.084;6.352;2023-04-03T06:29:27;13.00;;;5.07;;
66628;SDS011;53532;53.084;6.352;2023-04-03T06:31:53;10.87;;;4.53;;
66628;SDS011;53532;53.084;6.352;2023-04-03T06:34:19;12.10;;;5.10;;
66628;SDS011;53532;53.084;6.352;2023-04-03T06:36:46;13.23;;;5.10;;
66628;SDS011;53532;53.084;6.352;2023-04-03T06:39:14;10.67;;;4.90;;
66628;SDS011;53532;53.084;6.352;2023-04-03T06:41:42;11.43;;;5.10;;
66628;SDS011;53532;53.084;6.352;2023-04-03T06:44:08;9.80;;;5.10;;
66628;SDS011;53532;53.084;6.352;2023-04-03T06:46:36;10.17;;;4.73;;
66628;SDS011;53532;53.084;6.352;2023-04-03T06:49:03;10.60;;;4.70;;
66628;SDS011;53532;53.084;6.352;2023-04-03T06:51:32;10.33;;;4.93;;
66628;SDS011;53532;53.084;6.352;2023-04-03T06:53:58;11.00;;;4.50;;
66628;SDS011;53532;53.084;6.352;2023-04-03T06:56:25;12.13;;;4.80;;
66628;SDS011;53532;53.084;6.352;2023-04-03T06:58:53;10.00;;;4.53;;
66628;SDS011;53532;53.084;6.352;2023-04-03T07:01:22;10.10;;;4.33;;
66628;SDS011;53532;53.084;6.352;2023-04-03T07:03:48;10.53;;;4.53;;
66628;SDS011;53532;53.084;6.352;2023-04-03T07:06:15;9.43;;;4.40;;
66628;SDS011;53532;53.084;6.352;2023-04-03T07:08:41;10.67;;;4.23;;
66628;SDS011;53532;53.084;6.352;2023-04-03T07:11:08;10.67;;;4.33;;
66628;SDS011;53532;53.084;6.352;2023-04-03T07:13:35;10.47;;;4.40;;
66628;SDS011;53532;53.084;6.352;2023-04-03T07:16:03;9.97;;;4.03;;
66628;SDS011;53532;53.084;6.352;2023-04-03T07:18:30;9.40;;;3.70;;
66628;SDS011;53532;53.084;6.352;2023-04-03T07:20:56;8.50;;;4.03;;
66628;SDS011;53532;53.084;6.352;2023-04-03T07:23:22;7.90;;;3.20;;
66628;SDS011;53532;53.084;6.352;2023-04-03T07:25:49;8.67;;;3.30;;
66628;SDS011;53532;53.084;6.352;2023-04-03T07:28:16;9.87;;;3.40;;
66628;SDS011;53532;53.084;6.352;2023-04-03T07:30:43;8.50;;;3.27;;
66628;SDS011;53532;53.084;6.352;2023-04-03T07:33:12;7.93;;;3.03;;
66628;SDS011;53532;53.084;6.352;2023-04-03T07:35:38;10.13;;;2.90;;
66628;SDS011;53532;53.084;6.352;2023-04-03T07:38:04;8.47;;;2.60;;
66628;SDS011;53532;53.084;6.352;2023-04-03T07:40:31;7.50;;;2.73;;
66628;SDS011;53532;53.084;6.352;2023-04-03T07:42:57;7.90;;;2.60;;
66628;SDS011;53532;53.084;6.352;2023-04-03T07:45:23;8.87;;;2.67;;
66628;SDS011;53532;53.084;6.352;2023-04-03T07:47:49;7.10;;;2.60;;
66628;SDS011;53532;53.084;6.352;2023-04-03T07:50:18;8.57;;;2.70;;
66628;SDS011;53532;53.084;6.352;2023-04-03T07:52:44;7.73;;;2.70;;
66628;SDS011;53532;53.084;6.352;2023-04-03T07:55:11;6.97;;;2.40;;
66628;SDS011;53532;53.084;6.352;2023-04-03T07:57:37;7.80;;;2.33;;
66628;SDS011;53532;53.084;6.352;2023-04-03T08:00:04;7.93;;;2.60;;
66628;SDS011;53532;53.084;6.352;2023-04-03T08:02:30;6.00;;;2.10;;
66628;SDS011;53532;53.084;6.352;2023-04-03T08:04:57;6.77;;;2.60;;
66628;SDS011;53532;53.084;6.352;2023-04-03T08:07:24;9.97;;;2.50;;
66628;SDS011;53532;53.084;6.352;2023-04-03T08:09:50;7.00;;;2.10;;
66628;SDS011;53532;53.084;6.352;2023-04-03T08:12:17;8.50;;;2.30;;
66628;SDS011;53532;53.084;6.352;2023-04-03T08:14:43;6.00;;;2.30;;
66628;SDS011;53532;53.084;6.352;2023-04-03T08:17:09;9.13;;;2.60;;
66628;SDS011;53532;53.084;6.352;2023-04-03T08:19:36;6.37;;;2.30;;
66628;SDS011;53532;53.084;6.352;2023-04-03T08:22:03;5.93;;;1.80;;
66628;SDS011;53532;53.084;6.352;2023-04-03T08:24:31;6.00;;;2.10;;
66628;SDS011;53532;53.084;6.352;2023-04-03T08:26:57;5.80;;;2.00;;
66628;SDS011;53532;53.084;6.352;2023-04-03T08:29:24;5.40;;;2.00;;
66628;SDS011;53532;53.084;6.352;2023-04-03T08:31:50;5.40;;;2.03;;
66628;SDS011;53532;53.084;6.352;2023-04-03T08:34:16;5.73;;;2.10;;
66628;SDS011;53532;53.084;6.352;2023-04-03T08:36:43;5.83;;;2.10;;
66628;SDS011;53532;53.084;6.352;2023-04-03T08:39:09;5.83;;;1.70;;
66628;SDS011;53532;53.084;6.352;2023-04-03T08:41:37;4.97;;;2.07;;
66628;SDS011;53532;53.084;6.352;2023-04-03T08:44:08;6.93;;;1.90;;
66628;SDS011;53532;53.084;6.352;2023-04-03T08:46:43;5.80;;;2.17;;
66628;SDS011;53532;53.084;6.352;2023-04-03T08:49:14;5.82;;;1.67;;
66628;SDS011;53532;53.084;6.352;2023-04-03T08:51:45;4.25;;;1.90;;
66628;SDS011;53532;53.084;6.352;2023-04-03T08:54:14;5.25;;;1.58;;
66628;SDS011;53532;53.084;6.352;2023-04-03T08:56:43;4.88;;;1.60;;
66628;SDS011;53532;53.084;6.352;2023-04-03T08:59:11;4.10;;;1.65;;
66628;SDS011;53532;53.084;6.352;2023-04-03T09:01:38;4.90;;;1.67;;
66628;SDS011;53532;53.084;6.352;2023-04-03T09:04:09;6.13;;;1.92;;
66628;SDS011;53532;53.084;6.352;2023-04-03T09:06:36;6.05;;;1.95;;
66628;SDS011;53532;53.084;6.352;2023-04-03T09:09:06;6.32;;;2.33;;
66628;SDS011;53532;53.084;6.352;2023-04-03T09:11:36;5.70;;;1.67;;
66628;SDS011;53532;53.084;6.352;2023-04-03T09:14:13;4.93;;;1.90;;
66628;SDS011;53532;53.084;6.352;2023-04-03T09:16:43;6.55;;;2.00;;
66628;SDS011;53532;53.084;6.352;2023-04-03T09:19:15;6.68;;;2.70;;
66628;SDS011;53532;53.084;6.352;2023-04-03T09:21:45;4.45;;;1.65;;
66628;SDS011;53532;53.084;6.352;2023-04-03T09:24:12;6.05;;;1.88;;
66628;SDS011;53532;53.084;6.352;2023-04-03T09:26:41;4.75;;;1.50;;
66628;SDS011;53532;53.084;6.352;2023-04-03T09:29:08;4.28;;;1.70;;
66628;SDS011;53532;53.084;6.352;2023-04-03T09:31:42;5.38;;;1.70;;
66628;SDS011;53532;53.084;6.352;2023-04-03T09:34:10;6.13;;;2.10;;
66628;SDS011;53532;53.084;6.352;2023-04-03T09:36:40;4.45;;;1.40;;
66628;SDS011;53532;53.084;6.352;2023-04-03T09:39:10;6.50;;;1.60;;
66628;SDS011;53532;53.084;6.352;2023-04-03T09:41:36;5.15;;;1.60;;
66628;SDS011;53532;53.084;6.352;2023-04-03T09:44:03;4.55;;;1.50;;
66628;SDS011;53532;53.084;6.352;2023-04-03T09:46:29;5.10;;;1.65;;
66628;SDS011;53532;53.084;6.352;2023-04-03T09:48:59;2.95;;;1.38;;
66628;SDS011;53532;53.084;6.352;2023-04-03T09:51:26;4.45;;;1.70;;
66628;SDS011;53532;53.084;6.352;2023-04-03T09:53:55;4.25;;;1.50;;
66628;SDS011;53532;53.084;6.352;2023-04-03T09:56:22;4.53;;;1.45;;
66628;SDS011;53532;53.084;6.352;2023-04-03T09:58:51;5.70;;;1.60;;
66628;SDS011;53532;53.084;6.352;2023-04-03T10:01:22;3.85;;;1.30;;
66628;SDS011;53532;53.084;6.352;2023-04-03T10:04:01;5.68;;;1.73;;
66628;SDS011;53532;53.084;6.352;2023-04-03T10:06:30;3.80;;;1.20;;
66628;SDS011;53532;53.084;6.352;2023-04-03T10:08:58;4.10;;;1.60;;
66628;SDS011;53532;53.084;6.352;2023-04-03T10:11:24;4.75;;;1.33;;
66628;SDS011;53532;53.084;6.352;2023-04-03T10:13:52;3.88;;;1.40;;
66628;SDS011;53532;53.084;6.352;2023-04-03T10:16:20;2.40;;;1.02;;
66628;SDS011;53532;53.084;6.352;2023-04-03T10:18:48;3.65;;;1.30;;
66628;SDS011;53532;53.084;6.352;2023-04-03T10:21:17;3.78;;;1.10;;
66628;SDS011;53532;53.084;6.352;2023-04-03T10:23:48;3.47;;;1.02;;
66628;SDS011;53532;53.084;6.352;2023-04-03T10:26:17;4.28;;;1.20;;
66628;SDS011;53532;53.084;6.352;2023-04-03T10:28:45;3.80;;;1.33;;
66628;SDS011;53532;53.084;6.352;2023-04-03T10:31:14;4.43;;;1.20;;
66628;SDS011;53532;53.084;6.352;2023-04-03T10:33:46;1.65;;;0.90;;
66628;SDS011;53532;53.084;6.352;2023-04-03T10:38:43;2.60;;;0.82;;
66628;SDS011;53532;53.084;6.352;2023-04-03T10:41:14;2.70;;;1.00;;
66628;SDS011;53532;53.084;6.352;2023-04-03T10:43:42;5.10;;;1.20;;
66628;SDS011;53532;53.084;6.352;2023-04-03T10:46:09;2.25;;;1.10;;
66628;SDS011;53532;53.084;6.352;2023-04-03T10:48:40;3.03;;;1.10;;
66628;SDS011;53532;53.084;6.352;2023-04-03T10:51:13;3.28;;;1.15;;
66628;SDS011;53532;53.084;6.352;2023-04-03T10:56:10;2.03;;;1.05;;
66628;SDS011;53532;53.084;6.352;2023-04-03T10:58:40;1.98;;;1.10;;
66628;SDS011;53532;53.084;6.352;2023-04-03T11:01:09;3.85;;;1.20;;
66628;SDS011;53532;53.084;6.352;2023-04-03T11:03:38;2.33;;;0.95;;
66628;SDS011;53532;53.084;6.352;2023-04-03T11:06:07;4.03;;;1.08;;
66628;SDS011;53532;53.084;6.352;2023-04-03T11:08:35;3.20;;;1.30;;
66628;SDS011;53532;53.084;6.352;2023-04-03T11:11:05;2.47;;;0.98;;
66628;SDS011;53532;53.084;6.352;2023-04-03T11:13:33;3.28;;;1.10;;
66628;SDS011;53532;53.084;6.352;2023-04-03T11:16:02;4.00;;;1.25;;
66628;SDS011;53532;53.084;6.352;2023-04-03T11:18:31;4.07;;;1.13;;
66628;SDS011;53532;53.084;6.352;2023-04-03T11:20:59;2.72;;;1.00;;
66628;SDS011;53532;53.084;6.352;2023-04-03T11:23:26;3.10;;;1.23;;
66628;SDS011;53532;53.084;6.352;2023-04-03T11:25:59;3.42;;;1.10;;
66628;SDS011;53532;53.084;6.352;2023-04-03T11:28:27;2.15;;;1.00;;
66628;SDS011;53532;53.084;6.352;2023-04-03T11:30:55;3.20;;;1.13;;
66628;SDS011;53532;53.084;6.352;2023-04-03T11:33:35;4.05;;;0.98;;
66628;SDS011;53532;53.084;6.352;2023-04-03T11:36:04;4.68;;;1.00;;
66628;SDS011;53532;53.084;6.352;2023-04-03T11:38:33;3.70;;;1.10;;
66628;SDS011;53532;53.084;6.352;2023-04-03T11:41:01;3.45;;;1.20;;
66628;SDS011;53532;53.084;6.352;2023-04-03T11:43:28;3.00;;;1.13;;
66628;SDS011;53532;53.084;6.352;2023-04-03T11:45:56;3.30;;;1.00;;
66628;SDS011;53532;53.084;6.352;2023-04-03T11:53:52;3.15;;;1.30;;
66628;SDS011;53532;53.084;6.352;2023-04-03T11:56:28;4.00;;;1.20;;
66628;SDS011;53532;53.084;6.352;2023-04-03T12:01:44;5.15;;;1.50;;
66628;SDS011;53532;53.084;6.352;2023-04-03T12:04:11;4.23;;;1.40;;
66628;SDS011;53532;53.084;6.352;2023-04-03T12:09:25;1.95;;;1.13;;
66628;SDS011;53532;53.084;6.352;2023-04-03T12:11:52;4.32;;;1.30;;
66628;SDS011;53532;53.084;6.352;2023-04-03T12:14:19;4.18;;;1.30;;
66628;SDS011;53532;53.084;6.352;2023-04-03T12:16:47;2.63;;;1.20;;
66628;SDS011;53532;53.084;6.352;2023-04-03T12:19:30;3.70;;;1.20;;
66628;SDS011;53532;53.084;6.352;2023-04-03T12:22:08;7.43;;;1.67;;
66628;SDS011;53532;53.084;6.352;2023-04-03T12:24:36;3.55;;;1.38;;
66628;SDS011;53532;53.084;6.352;2023-04-03T12:30:00;2.97;;;1.30;;
66628;SDS011;53532;53.084;6.352;2023-04-03T12:32:41;3.58;;;1.27;;
66628;SDS011;53532;53.084;6.352;2023-04-03T12:35:15;3.20;;;1.42;;
66628;SDS011;53532;53.084;6.352;2023-04-03T12:37:47;4.50;;;1.30;;
66628;SDS011;53532;53.084;6.352;2023-04-03T12:40:19;3.63;;;1.65;;
66628;SDS011;53532;53.084;6.352;2023-04-03T12:43:05;5.50;;;1.52;;
66628;SDS011;53532;53.084;6.352;2023-04-03T12:45:39;4.20;;;1.50;;
66628;SDS011;53532;53.084;6.352;2023-04-03T12:48:08;4.90;;;1.58;;
66628;SDS011;53532;53.084;6.352;2023-04-03T12:53:06;4.93;;;1.60;;
66628;SDS011;53532;53.084;6.352;2023-04-03T12:55:34;4.65;;;1.60;;
66628;SDS011;53532;53.084;6.352;2023-04-03T12:58:13;6.07;;;1.77;;
66628;SDS011;53532;53.084;6.352;2023-04-03T13:00:40;4.93;;;1.90;;
66628;SDS011;53532;53.084;6.352;2023-04-03T13:03:07;4.53;;;1.67;;
66628;SDS011;53532;53.084;6.352;2023-04-03T13:05:45;3.47;;;1.60;;
66628;SDS011;53532;53.084;6.352;2023-04-03T13:08:12;4.35;;;1.45;;
66628;SDS011;53532;53.084;6.352;2023-04-03T13:10:49;3.85;;;1.60;;
66628;SDS011;53532;53.084;6.352;2023-04-03T13:13:16;4.60;;;1.40;;
66628;SDS011;53532;53.084;6.352;2023-04-03T13:15:43;3.75;;;1.40;;
66628;SDS011;53532;53.084;6.352;2023-04-03T13:18:27;3.30;;;1.58;;
66628;SDS011;53532;53.084;6.352;2023-04-03T13:20:53;4.53;;;1.60;;
66628;SDS011;53532;53.084;6.352;2023-04-03T13:23:21;4.40;;;1.60;;
66628;SDS011;53532;53.084;6.352;2023-04-03T13:25:50;4.68;;;1.70;;
66628;SDS011;53532;53.084;6.352;2023-04-03T13:28:17;4.43;;;1.58;;
66628;SDS011;53532;53.084;6.352;2023-04-03T13:30:54;4.38;;;1.65;;
66628;SDS011;53532;53.084;6.352;2023-04-03T13:33:23;4.43;;;1.90;;
66628;SDS011;53532;53.084;6.352;2023-04-03T13:35:54;3.75;;;1.55;;
66628;SDS011;53532;53.084;6.352;2023-04-03T13:38:23;5.93;;;1.80;;
66628;SDS011;53532;53.084;6.352;2023-04-03T13:40:52;4.60;;;1.30;;
66628;SDS011;53532;53.084;6.352;2023-04-03T13:43:20;3.58;;;1.55;;
66628;SDS011;53532;53.084;6.352;2023-04-03T13:45:57;4.22;;;1.42;;
66628;SDS011;53532;53.084;6.352;2023-04-03T13:48:24;4.63;;;1.50;;
66628;SDS011;53532;53.084;6.352;2023-04-03T13:50:51;4.50;;;1.60;;
66628;SDS011;53532;53.084;6.352;2023-04-03T13:53:18;3.97;;;1.60;;
66628;SDS011;53532;53.084;6.352;2023-04-03T13:55:59;5.65;;;1.80;;
66628;SDS011;53532;53.084;6.352;2023-04-03T13:58:26;6.65;;;1.80;;
66628;SDS011;53532;53.084;6.352;2023-04-03T14:00:53;5.00;;;1.70;;
66628;SDS011;53532;53.084;6.352;2023-04-03T14:03:20;5.03;;;1.75;;
66628;SDS011;53532;53.084;6.352;2023-04-03T14:05:47;4.93;;;1.60;;
66628;SDS011;53532;53.084;6.352;2023-04-03T14:08:13;5.13;;;1.77;;
66628;SDS011;53532;53.084;6.352;2023-04-03T14:10:39;4.13;;;1.50;;
66628;SDS011;53532;53.084;6.352;2023-04-03T14:13:09;2.83;;;1.48;;
66628;SDS011;53532;53.084;6.352;2023-04-03T14:15:37;4.03;;;1.50;;
66628;SDS011;53532;53.084;6.352;2023-04-03T14:18:03;4.35;;;1.63;;
66628;SDS011;53532;53.084;6.352;2023-04-03T14:20:29;3.45;;;1.70;;
66628;SDS011;53532;53.084;6.352;2023-04-03T14:22:55;4.28;;;1.40;;
66628;SDS011;53532;53.084;6.352;2023-04-03T14:25:22;4.63;;;1.52;;
66628;SDS011;53532;53.084;6.352;2023-04-03T14:27:52;4.45;;;1.52;;
66628;SDS011;53532;53.084;6.352;2023-04-03T14:30:22;5.32;;;1.75;;
66628;SDS011;53532;53.084;6.352;2023-04-03T14:32:48;3.75;;;1.50;;
66628;SDS011;53532;53.084;6.352;2023-04-03T14:35:15;4.20;;;1.70;;
66628;SDS011;53532;53.084;6.352;2023-04-03T14:37:41;3.70;;;1.50;;
66628;SDS011;53532;53.084;6.352;2023-04-03T14:40:08;3.70;;;1.35;;
66628;SDS011;53532;53.084;6.352;2023-04-03T14:42:35;4.35;;;1.50;;
66628;SDS011;53532;53.084;6.352;2023-04-03T14:45:03;3.97;;;1.60;;
66628;SDS011;53532;53.084;6.352;2023-04-03T14:47:32;4.10;;;1.45;;
66628;SDS011;53532;53.084;6.352;2023-04-03T14:49:58;3.25;;;1.33;;
66628;SDS011;53532;53.084;6.352;2023-04-03T14:52:25;3.22;;;1.35;;
66628;SDS011;53532;53.084;6.352;2023-04-03T14:54:52;3.20;;;1.23;;
66628;SDS011;53532;53.084;6.352;2023-04-03T14:57:19;3.58;;;1.20;;
66628;SDS011;53532;53.084;6.352;2023-04-03T14:59:45;4.32;;;1.35;;
66628;SDS011;53532;53.084;6.352;2023-04-03T15:02:22;3.95;;;1.30;;
66628;SDS011;53532;53.084;6.352;2023-04-03T15:04:51;4.72;;;1.52;;
66628;SDS011;53532;53.084;6.352;2023-04-03T15:07:17;4.28;;;1.15;;
66628;SDS011;53532;53.084;6.352;2023-04-03T15:09:44;4.22;;;1.40;;
66628;SDS011;53532;53.084;6.352;2023-04-03T15:12:10;3.55;;;1.42;;
66628;SDS011;53532;53.084;6.352;2023-04-03T15:14:36;4.05;;;1.60;;